NCAR-RAP Real-Time Weather Data

Output produced by METARs form (23 February 2020  02:39 UTC)
found at http://weather.rap.ucar.edu/surface/
 
KSLC 230154Z 00000KT 10SM FEW080 BKN160 BKN230 03/M05 A3000 RMK AO2 SLP166 T00281050
KSLC 230054Z 28005KT 10SM SCT090 BKN180 BKN230 04/M05 A3000 RMK AO2 SLP165 T00441050
KSLC 222354Z 27009KT 10SM FEW090 BKN160 BKN230 05/M03 A3001 RMK AO2 SLP169 VIRGA DSNT S T00501033 10072 20039 56012
KSLC 222254Z 28010KT 10SM FEW080 SCT110 BKN160 BKN210 06/M03 A3002 RMK AO2 SLP168 T00611033
KSLC 222154Z 30007KT 10SM SCT080 BKN110 BKN200 07/M03 A3003 RMK AO2 SLP171 T00671033
KSLC 222054Z 30007KT 10SM SCT080 BKN110 BKN200 06/M03 A3005 RMK AO2 SLP179 VIRGA T00611028 58026
KSLC 221954Z 30006KT 10SM BKN110 BKN200 06/M04 A3009 RMK AO2 SLP184 VIRGA T00561039
KSLC 221854Z 32005KT 10SM BKN110 05/M06 A3012 RMK AO2 SLP197 T00501061
KSLC 221754Z 33006KT 10SM BKN110 BKN200 04/M04 A3014 RMK AO2 SLP213 T00391039 10044 21028 58004
KSLC 221654Z 00000KT 10SM FEW120 SCT200 03/M06 A3015 RMK AO2 SLP218 T00331061
KSLC 221554Z 00000KT 10SM FEW120 FEW200 01/M05 A3015 RMK AO2 SLP224 T00061050
KSLC 221454Z 17003KT 9SM SCT120 BKN200 M02/M05 A3015 RMK AO2 SLP225 T10171050 58004
KSLC 221354Z 13005KT 10SM BKN120 M02/M06 A3016 RMK AO2 SLP225 T10221056
KSLC 221254Z 18003KT 9SM SCT110 M02/M05 A3016 RMK AO2 SLP225 T10221050
KSLC 221154Z 00000KT 10SM BKN110 M02/M04 A3016 RMK AO2 SLP222 T10171044 11006 21022 56012
KSLC 221054Z 00000KT 10SM BKN100 M01/M04 A3017 RMK AO2 SLP213 T10111044
KSLC 220954Z 00000KT 9SM BKN110 M02/M04 A3019 RMK AO2 SLP219 T10171044
KSLC 220854Z 00000KT 10SM FEW200 M01/M06 A3020 RMK AO2 SLP225 T10111056 58010
KSLC 220754Z 18003KT 10SM FEW150 M02/M04 A3021 RMK AO2 SLP241 T10171044
KSLC 220654Z 11004KT 10SM FEW150 M01/M05 A3023 RMK AO2 SLP249 T10111050 400611056
KSLC 220554Z 00000KT 10SM FEW130 M01/M05 A3024 RMK AO2 SLP254 T10061050 10050 21011 50002
KSLC 220454Z 26004KT 10SM FEW160 M01/M05 A3024 RMK AO2 SLP256 T10061050
KSLC 220354Z 36004KT 10SM FEW150 M01/M04 A3024 RMK AO2 SLP258 T10061044
KSLC 220254Z 25003KT 10SM FEW140 00/M06 A3023 RMK AO2 SLP259 T00001056 53006
KSLC 220154Z 31005KT 10SM FEW150 02/M05 A3023 RMK AO2 SLP255 T00171050
KSLC 220054Z 27004KT 10SM FEW140 03/M06 A3021 RMK AO2 SLP245 T00331056
KSLC 212354Z 30006KT 10SM CLR 05/M05 A3021 RMK AO2 SLP242 T00501050 10061 20006 57014
KSLC 212254Z 29007KT 10SM CLR 06/M06 A3023 RMK AO2 SLP248 T00561056
KSLC 212154Z 31009KT 10SM FEW120 FEW200 06/M07 A3024 RMK AO2 SLP249 ACSL DSNT SE T00561067
KSLC 212054Z 30008KT 10SM FEW120 FEW200 05/M07 A3026 RMK AO2 SLP256 ACSL DSNT SE T00501072 58027
KSLC 211954Z 32004KT 10SM FEW130 SCT200 04/M08 A3028 RMK AO2 SLP267 T00391078
KSLC 211854Z 34004KT 10SM FEW130 BKN180 BKN210 02/M07 A3033 RMK AO2 SLP288 T00221067
KSLC 211754Z 33003KT 10SM FEW130 SCT180 BKN210 01/M08 A3035 RMK AO2 SLP295 VIRGA T00061078 10006 21056 51005
KSLC 211654Z 31003KT 9SM SCT180 BKN220 M01/M07 A3034 RMK AO2 SLP295 T10061072
KSLC 211554Z 00000KT 10SM FEW180 BKN220 M03/M08 A3034 RMK AO2 SLP295 T10281078
KSLC 211454Z 15003KT 10SM FEW110 SCT180 M05/M08 A3033 RMK AO2 SLP297 T10501083 58007
KSLC 211354Z 13004KT 10SM FEW200 M06/M09 A3034 RMK AO2 SLP298 T10561089
KSLC 211254Z 16004KT 10SM CLR M05/M09 A3036 RMK AO2 SLP299 T10501089
KSLC 211154Z 00000KT 10SM CLR M04/M08 A3035 RMK AO2 SLP293 T10441083 11028 21044 55005
KSLC 211054Z 17003KT 10SM CLR M04/M08 A3035 RMK AO2 SLP291 T10441078
KSLC 210954Z 00000KT 10SM CLR M04/M08 A3036 RMK AO2 SLP294 T10391078
KSLC 210854Z 00000KT 10SM CLR M03/M08 A3037 RMK AO2 SLP299 T10331078 58010
KSLC 210754Z 00000KT 10SM CLR M03/M07 A3038 RMK AO2 SLP304 T10331072
KSLC 210654Z 00000KT 10SM CLR M03/M07 A3039 RMK AO2 SLP311 T10331067 400501061
KSLC 210554Z 00000KT 10SM CLR M03/M07 A3040 RMK AO2 SLP314 T10281067 10039 21028 56002
KSLC 210454Z 25003KT 10SM FEW200 M03/M07 A3041 RMK AO2 SLP320 T10281072
KSLC 210354Z 22004KT 10SM FEW200 M02/M07 A3041 RMK AO2 SLP321 T10221067
KSLC 210254Z 35003KT 10SM FEW220 M02/M08 A3041 RMK AO2 SLP325 T10171078 53003